createdAt,value
2023-05-19T00:01:19.321Z,15.16
2023-05-19T00:03:59.102Z,15.19
2023-05-19T00:06:31.964Z,15.20
2023-05-19T00:09:07.281Z,15.20
2023-05-19T00:11:37.207Z,15.20
2023-05-19T00:14:08.046Z,15.20
2023-05-19T00:16:40.859Z,15.20
2023-05-19T00:19:10.654Z,15.18
2023-05-19T00:21:39.162Z,15.20
2023-05-19T00:24:07.895Z,15.25
2023-05-19T00:26:36.154Z,15.29
2023-05-19T00:29:06.277Z,15.33
2023-05-19T00:31:34.572Z,15.35
2023-05-19T00:34:03.442Z,15.36
2023-05-19T00:36:31.633Z,15.36
2023-05-19T00:38:59.765Z,15.36
2023-05-19T00:41:27.875Z,15.35
2023-05-19T00:43:56.300Z,15.35
2023-05-19T00:46:25.170Z,15.32
2023-05-19T00:48:53.458Z,15.30
2023-05-19T00:51:23.002Z,15.32
2023-05-19T00:53:52.388Z,15.35
2023-05-19T00:56:21.913Z,15.36
2023-05-19T00:58:52.096Z,15.38
2023-05-19T01:01:22.022Z,15.37
2023-05-19T01:03:51.583Z,15.39
2023-05-19T01:06:21.200Z,15.38
2023-05-19T01:08:51.846Z,15.35
2023-05-19T01:11:19.967Z,15.33
2023-05-19T01:13:48.289Z,15.33
2023-05-19T01:17:15.312Z,15.31
2023-05-19T01:19:57.986Z,15.29
2023-05-19T01:22:44.525Z,15.31
2023-05-19T01:25:27.643Z,15.35
2023-05-19T01:28:24.771Z,15.35
2023-05-19T01:30:58.431Z,15.39
2023-05-19T01:33:30.041Z,15.38
2023-05-19T01:36:00.655Z,15.39
2023-05-19T01:38:30.514Z,15.38
2023-05-19T01:40:59.906Z,15.35
2023-05-19T01:43:29.544Z,15.32
2023-05-19T01:45:59.123Z,15.28
2023-05-19T01:48:28.996Z,15.28
2023-05-19T01:50:59.020Z,15.24
2023-05-19T01:53:27.448Z,15.22
2023-05-19T01:55:56.665Z,15.23
2023-05-19T01:58:47.791Z,15.22
2023-05-19T02:01:15.968Z,15.25
2023-05-19T02:04:15.479Z,15.27
2023-05-19T02:07:05.816Z,15.28
2023-05-19T02:09:59.629Z,15.29
2023-05-19T02:12:34.488Z,15.29
2023-05-19T02:15:07.379Z,15.27
2023-05-19T02:17:41.708Z,15.25
2023-05-19T02:20:12.044Z,15.24
2023-05-19T02:22:40.593Z,15.23
2023-05-19T02:25:09.227Z,15.21
2023-05-19T02:27:39.152Z,15.18
2023-05-19T02:30:09.465Z,15.16
2023-05-19T02:32:38.313Z,15.15
2023-05-19T02:35:06.914Z,15.13
2023-05-19T02:37:35.636Z,15.12
2023-05-19T02:40:04.556Z,15.11
2023-05-19T02:42:32.789Z,15.11
2023-05-19T02:45:00.998Z,15.10
2023-05-19T02:47:29.264Z,15.09
2023-05-19T02:49:57.337Z,15.09
2023-05-19T02:52:25.460Z,15.13
2023-05-19T02:54:53.585Z,15.15
2023-05-19T02:57:22.103Z,15.21
2023-05-19T02:59:50.317Z,15.23
2023-05-19T03:02:18.640Z,15.26
2023-05-19T03:04:46.869Z,15.29
2023-05-19T03:07:15.782Z,15.30
2023-05-19T03:09:43.827Z,15.32
2023-05-19T03:12:11.922Z,15.34
2023-05-19T03:14:40.041Z,15.36
2023-05-19T03:17:08.590Z,15.36
2023-05-19T03:19:37.087Z,15.37
2023-05-19T03:22:05.617Z,15.40
2023-05-19T03:24:34.750Z,15.40
2023-05-19T03:27:06.000Z,15.42
2023-05-19T03:29:34.383Z,15.45
2023-05-19T03:32:02.571Z,15.49
2023-05-19T03:34:32.867Z,15.54
2023-05-19T03:37:01.459Z,15.59
2023-05-19T03:39:29.577Z,15.65
2023-05-19T03:41:57.709Z,15.70
2023-05-19T03:44:25.815Z,15.76
2023-05-19T03:46:54.034Z,15.83
2023-05-19T03:49:40.622Z,15.91
2023-05-19T03:52:38.854Z,16.01
2023-05-19T03:55:21.735Z,16.10
2023-05-19T03:57:49.945Z,16.20
2023-05-19T04:00:18.863Z,16.29
2023-05-19T04:02:47.113Z,16.40
2023-05-19T04:05:15.411Z,16.50
2023-05-19T04:07:43.635Z,16.59
2023-05-19T04:10:12.312Z,16.71
2023-05-19T04:12:40.461Z,16.82
2023-05-19T04:15:11.521Z,16.94
2023-05-19T04:17:40.166Z,17.07
2023-05-19T04:20:08.843Z,17.21
2023-05-19T04:22:36.958Z,17.34
2023-05-19T04:25:05.680Z,17.47
2023-05-19T04:27:36.824Z,17.59
2023-05-19T04:30:06.326Z,17.72
2023-05-19T04:32:37.800Z,17.83
2023-05-19T04:35:06.886Z,17.94
2023-05-19T04:37:37.615Z,18.06
2023-05-19T04:40:11.211Z,18.18
2023-05-19T04:42:43.092Z,18.30
2023-05-19T04:45:14.292Z,18.43
2023-05-19T04:47:44.663Z,18.55
2023-05-19T04:50:13.272Z,18.67
2023-05-19T04:52:45.765Z,18.79
2023-05-19T04:55:14.361Z,18.90
2023-05-19T04:57:43.150Z,19.02
2023-05-19T05:00:15.540Z,19.13
2023-05-19T05:03:08.156Z,19.25
2023-05-19T05:05:36.620Z,19.35
2023-05-19T05:08:04.729Z,19.45
2023-05-19T05:10:37.058Z,19.52
2023-05-19T05:13:05.505Z,19.60
2023-05-19T05:15:34.146Z,19.69
2023-05-19T05:18:03.327Z,19.79
2023-05-19T05:20:32.693Z,19.88
2023-05-19T05:23:02.279Z,19.98
2023-05-19T05:25:32.493Z,20.07
2023-05-19T05:28:05.342Z,20.17
2023-05-19T05:30:34.797Z,20.26
2023-05-19T05:33:03.535Z,20.34
2023-05-19T05:35:35.033Z,20.42
2023-05-19T05:38:03.639Z,20.51
2023-05-19T05:40:31.866Z,20.61
2023-05-19T05:42:59.982Z,20.68
2023-05-19T05:45:30.276Z,20.77
2023-05-19T05:47:59.377Z,20.86
2023-05-19T05:50:28.159Z,20.91
2023-05-19T05:53:00.171Z,20.99
2023-05-19T05:55:28.911Z,21.09
2023-05-19T05:57:58.867Z,21.18
2023-05-19T06:00:28.559Z,21.28
2023-05-19T06:02:57.455Z,21.39
2023-05-19T06:05:27.159Z,21.48
2023-05-19T06:07:55.440Z,21.59
2023-05-19T06:10:26.469Z,21.69
2023-05-19T06:12:55.082Z,21.78
2023-05-19T06:15:23.758Z,21.86
2023-05-19T06:18:02.689Z,21.99
2023-05-19T06:20:31.007Z,22.07
2023-05-19T06:23:01.213Z,22.11
2023-05-19T06:25:30.635Z,22.15
2023-05-19T06:27:59.261Z,22.24
2023-05-19T06:30:27.580Z,22.33
2023-05-19T06:33:18.885Z,22.37
2023-05-19T06:35:46.904Z,22.41
2023-05-19T06:38:15.854Z,22.46
2023-05-19T06:40:44.546Z,22.53
2023-05-19T06:43:12.574Z,22.56
2023-05-19T06:45:57.452Z,22.66
2023-05-19T06:48:26.771Z,22.77
2023-05-19T06:50:55.396Z,22.85
2023-05-19T06:53:23.816Z,22.96
2023-05-19T06:55:59.449Z,23.08
2023-05-19T06:58:31.821Z,23.20
2023-05-19T07:01:00.415Z,23.30
2023-05-19T07:03:31.888Z,23.37
2023-05-19T07:06:00.693Z,23.42
2023-05-19T07:08:29.597Z,23.49
2023-05-19T07:10:58.520Z,23.54
2023-05-19T07:13:27.566Z,23.67
2023-05-19T07:15:56.497Z,23.77
2023-05-19T07:18:25.646Z,23.81
2023-05-19T07:20:54.222Z,23.87
2023-05-19T07:23:22.319Z,23.97
2023-05-19T07:25:50.441Z,23.99
2023-05-19T07:28:18.966Z,24.01
2023-05-19T07:30:47.094Z,24.05
2023-05-19T07:33:15.203Z,24.06
2023-05-19T07:35:44.733Z,24.10
2023-05-19T07:38:14.060Z,24.12
2023-05-19T07:40:42.192Z,24.19
2023-05-19T07:43:11.599Z,24.26
2023-05-19T07:45:40.241Z,24.38
2023-05-19T07:48:08.598Z,24.40
2023-05-19T07:50:37.364Z,24.37
2023-05-19T07:53:05.581Z,24.40
2023-05-19T07:55:33.701Z,24.53
2023-05-19T07:58:01.822Z,24.61
2023-05-19T08:00:29.938Z,24.66
2023-05-19T08:02:58.206Z,24.68
2023-05-19T08:05:26.391Z,24.75
2023-05-19T08:07:54.401Z,24.83
2023-05-19T08:10:22.734Z,24.89
2023-05-19T08:12:51.148Z,24.99
2023-05-19T08:15:19.778Z,25.10
2023-05-19T08:17:48.336Z,25.20
2023-05-19T08:20:16.509Z,25.29
2023-05-19T08:22:44.534Z,25.40
2023-05-19T08:25:14.054Z,25.48
2023-05-19T08:27:42.273Z,25.55
2023-05-19T08:30:10.997Z,25.66
2023-05-19T08:32:39.265Z,25.75
2023-05-19T08:35:08.035Z,25.78
2023-05-19T08:37:38.152Z,25.63
2023-05-19T08:40:08.796Z,25.60
2023-05-19T08:42:37.033Z,25.60
2023-05-19T08:45:06.568Z,25.66
2023-05-19T08:47:35.228Z,25.77
2023-05-19T08:50:08.047Z,25.88
2023-05-19T08:52:38.923Z,25.98
2023-05-19T08:55:07.548Z,26.06
2023-05-19T08:57:37.787Z,26.12
2023-05-19T09:00:11.321Z,26.17
2023-05-19T09:02:50.409Z,26.22
2023-05-19T09:05:29.068Z,26.18
2023-05-19T09:07:57.454Z,26.29
2023-05-19T09:10:27.119Z,26.26
2023-05-19T09:12:56.303Z,26.24
2023-05-19T09:15:28.132Z,26.24
2023-05-19T09:18:14.154Z,26.34
2023-05-19T09:20:44.264Z,26.52
2023-05-19T09:23:17.758Z,26.54
2023-05-19T09:25:50.063Z,26.60
2023-05-19T09:28:25.720Z,26.62
2023-05-19T09:31:10.548Z,26.59
2023-05-19T09:33:45.609Z,26.67
2023-05-19T09:36:14.839Z,26.72
2023-05-19T09:38:43.034Z,26.77
2023-05-19T09:41:14.763Z,26.79
2023-05-19T09:43:43.039Z,26.81
2023-05-19T09:46:14.488Z,26.86
2023-05-19T09:48:44.063Z,26.81
2023-05-19T09:51:12.554Z,26.79
2023-05-19T09:53:40.775Z,26.91
2023-05-19T09:56:10.124Z,26.99
2023-05-19T09:58:42.445Z,27.06
2023-05-19T10:01:11.694Z,27.16
2023-05-19T10:03:40.795Z,27.23
2023-05-19T10:06:09.606Z,27.18
2023-05-19T10:08:39.819Z,27.18
2023-05-19T10:11:10.056Z,27.29
2023-05-19T10:13:39.319Z,27.32
2023-05-19T10:16:10.076Z,27.40
2023-05-19T10:18:39.976Z,27.42
2023-05-19T10:21:09.839Z,27.33
2023-05-19T10:23:38.489Z,27.44
2023-05-19T10:26:08.312Z,27.58
2023-05-19T10:28:39.778Z,27.51
2023-05-19T10:31:12.538Z,27.48
2023-05-19T10:34:25.455Z,27.54
2023-05-19T10:36:59.096Z,27.64
2023-05-19T10:39:38.050Z,27.66
2023-05-19T10:42:32.293Z,27.51
2023-05-19T10:45:15.939Z,27.42
2023-05-19T10:47:45.947Z,27.41
2023-05-19T10:50:14.648Z,27.52
2023-05-19T10:52:44.917Z,27.49
2023-05-19T10:55:17.848Z,27.33
2023-05-19T10:57:58.729Z,27.07
2023-05-19T11:00:29.202Z,27.26
2023-05-19T11:03:19.254Z,27.47
2023-05-19T11:05:50.505Z,27.70
2023-05-19T11:08:35.141Z,27.82
2023-05-19T11:11:51.756Z,27.96
2023-05-19T11:14:26.697Z,28.02
2023-05-19T11:16:59.724Z,28.17
2023-05-19T11:19:30.778Z,28.14
2023-05-19T11:22:27.035Z,28.10
2023-05-19T11:24:56.220Z,28.10
2023-05-19T11:27:31.978Z,28.16
2023-05-19T11:30:09.608Z,28.35
2023-05-19T11:32:39.517Z,28.35
2023-05-19T11:35:10.272Z,28.32
2023-05-19T11:37:40.598Z,28.46
2023-05-19T11:40:09.544Z,28.33
2023-05-19T11:42:37.922Z,28.37
2023-05-19T11:45:08.258Z,28.53
2023-05-19T11:47:51.685Z,28.71
2023-05-19T11:50:26.074Z,28.90
2023-05-19T11:52:55.426Z,28.92
2023-05-19T11:55:23.739Z,28.98
2023-05-19T11:58:05.496Z,29.00
2023-05-19T12:00:41.210Z,28.89
2023-05-19T12:03:10.271Z,28.70
2023-05-19T12:05:44.906Z,28.69
2023-05-19T12:08:13.615Z,28.66
2023-05-19T12:10:41.869Z,28.34
2023-05-19T12:13:10.461Z,28.25
2023-05-19T12:15:39.495Z,28.36
2023-05-19T12:18:08.167Z,28.48
2023-05-19T12:20:37.566Z,28.52
2023-05-19T12:23:07.828Z,28.35
2023-05-19T12:25:36.354Z,28.40
2023-05-19T12:28:05.229Z,28.40
2023-05-19T12:30:35.294Z,28.36
2023-05-19T12:33:04.109Z,28.35
2023-05-19T12:35:36.423Z,28.30
2023-05-19T12:38:07.902Z,28.20
2023-05-19T12:40:38.400Z,28.16
2023-05-19T12:43:07.057Z,28.12
2023-05-19T12:45:36.455Z,28.08
2023-05-19T12:48:06.743Z,28.12
2023-05-19T12:50:38.243Z,28.12
2023-05-19T12:53:09.378Z,28.12
2023-05-19T12:55:45.026Z,28.01
2023-05-19T12:58:13.861Z,27.95
2023-05-19T13:00:45.268Z,28.05
2023-05-19T13:03:21.000Z,28.12
2023-05-19T13:05:51.370Z,28.09
2023-05-19T13:08:22.032Z,28.11
2023-05-19T13:10:50.502Z,27.93
2023-05-19T13:13:18.825Z,27.85
2023-05-19T13:15:50.805Z,27.82
2023-05-19T13:18:19.393Z,27.76
2023-05-19T13:20:50.326Z,27.67
2023-05-19T13:23:18.842Z,27.74
2023-05-19T13:25:47.359Z,27.79
2023-05-19T13:28:15.584Z,27.76
2023-05-19T13:30:44.336Z,27.64
2023-05-19T13:33:12.866Z,27.55
2023-05-19T13:35:41.344Z,27.57
2023-05-19T13:38:10.589Z,27.57
2023-05-19T13:40:40.461Z,27.53
2023-05-19T13:43:09.909Z,27.48
2023-05-19T13:45:38.843Z,27.50
2023-05-19T13:48:07.830Z,27.45
2023-05-19T13:50:36.782Z,27.47
2023-05-19T13:53:05.008Z,27.40
2023-05-19T13:55:33.796Z,27.36
2023-05-19T13:58:02.048Z,27.23
2023-05-19T14:00:32.027Z,27.14
2023-05-19T14:03:00.628Z,27.08
2023-05-19T14:05:29.338Z,27.08
2023-05-19T14:07:58.264Z,27.05
2023-05-19T14:10:26.859Z,27.08
2023-05-19T14:13:25.784Z,27.05
2023-05-19T14:15:43.460Z,27.03
2023-05-19T14:18:11.603Z,26.97
2023-05-19T14:20:39.708Z,27.02
2023-05-19T14:23:07.726Z,27.07
2023-05-19T14:25:36.047Z,27.10
2023-05-19T14:28:04.373Z,27.12
2023-05-19T14:30:33.053Z,27.08
2023-05-19T14:33:01.555Z,27.11
2023-05-19T14:35:29.738Z,27.15
2023-05-19T14:37:57.853Z,27.18
2023-05-19T14:40:25.982Z,27.22
2023-05-19T14:42:54.309Z,27.11
2023-05-19T14:45:22.521Z,27.14
2023-05-19T14:47:50.745Z,27.06
2023-05-19T14:50:19.257Z,27.06
2023-05-19T14:52:47.473Z,27.05
2023-05-19T14:55:15.700Z,26.99
2023-05-19T14:57:43.837Z,27.00
2023-05-19T15:00:12.945Z,26.88
2023-05-19T15:02:41.304Z,26.86
2023-05-19T15:05:09.789Z,26.80
2023-05-19T15:07:38.110Z,26.71
2023-05-19T15:10:06.683Z,26.68
2023-05-19T15:12:34.862Z,26.73
2023-05-19T15:15:04.119Z,26.74
2023-05-19T15:17:32.318Z,26.64
2023-05-19T15:20:00.938Z,26.65
2023-05-19T15:22:29.233Z,26.64
2023-05-19T15:24:57.453Z,26.59
2023-05-19T15:27:25.575Z,26.62
2023-05-19T15:29:53.600Z,26.63
2023-05-19T15:32:21.713Z,26.55
2023-05-19T15:34:50.048Z,26.46
2023-05-19T15:37:18.354Z,26.40
2023-05-19T15:39:46.581Z,26.24
2023-05-19T15:42:14.722Z,26.16
2023-05-19T15:44:42.913Z,26.01
2023-05-19T15:47:11.042Z,25.85
2023-05-19T15:49:39.156Z,25.79
2023-05-19T15:52:07.279Z,25.58
2023-05-19T15:54:35.295Z,25.29
2023-05-19T15:57:03.527Z,25.02
2023-05-19T15:59:31.645Z,24.66
2023-05-19T16:01:59.825Z,24.46
2023-05-19T16:04:27.976Z,24.28
2023-05-19T16:06:56.396Z,24.14
2023-05-19T16:09:24.720Z,24.10
2023-05-19T16:11:52.847Z,24.06
2023-05-19T16:14:20.866Z,23.93
2023-05-19T16:16:49.088Z,23.78
2023-05-19T16:19:17.453Z,23.72
2023-05-19T16:21:45.721Z,23.71
2023-05-19T16:24:13.840Z,23.67
2023-05-19T16:26:41.975Z,23.58
2023-05-19T16:29:10.084Z,23.49
2023-05-19T16:31:38.157Z,23.35
2023-05-19T16:34:06.324Z,23.23
2023-05-19T16:36:34.236Z,23.08
2023-05-19T16:39:02.560Z,22.94
2023-05-19T16:41:30.680Z,22.85
2023-05-19T16:43:58.900Z,22.78
2023-05-19T16:46:29.100Z,22.74
2023-05-19T16:48:58.049Z,22.68
2023-05-19T16:51:26.068Z,22.64
2023-05-19T16:53:54.190Z,22.59
2023-05-19T16:56:22.621Z,22.55
2023-05-19T16:58:51.134Z,22.49
2023-05-19T17:01:19.273Z,22.43
2023-05-19T17:03:47.320Z,22.36
2023-05-19T17:06:15.487Z,22.29
2023-05-19T17:08:43.609Z,22.23
2023-05-19T17:11:13.632Z,22.14
2023-05-19T17:13:44.061Z,22.07
2023-05-19T17:16:12.186Z,21.99
2023-05-19T17:18:40.323Z,21.90
2023-05-19T17:21:08.328Z,21.82
2023-05-19T17:23:36.442Z,21.75
2023-05-19T17:26:04.770Z,21.68
2023-05-19T17:28:32.878Z,21.60
2023-05-19T17:31:01.728Z,21.52
2023-05-19T17:33:30.506Z,21.46
2023-05-19T17:35:58.851Z,21.42
2023-05-19T17:38:26.867Z,21.39
2023-05-19T17:40:59.016Z,21.36
2023-05-19T17:43:27.853Z,21.33
2023-05-19T17:45:56.822Z,21.27
2023-05-19T17:48:26.477Z,21.21
2023-05-19T17:50:54.894Z,21.14
2023-05-19T17:53:23.869Z,21.07
2023-05-19T17:56:03.176Z,21.01
2023-05-19T17:58:31.714Z,20.95
2023-05-19T18:01:00.140Z,20.91
2023-05-19T18:03:28.788Z,20.89
2023-05-19T18:05:57.749Z,20.88
2023-05-19T18:08:26.994Z,20.88
2023-05-19T18:10:56.914Z,20.86
2023-05-19T18:13:26.336Z,20.87
2023-05-19T18:15:54.695Z,20.87
2023-05-19T18:18:22.877Z,20.87
2023-05-19T18:20:51.093Z,20.86
2023-05-19T18:23:20.468Z,20.85
2023-05-19T18:25:50.550Z,20.85
2023-05-19T18:28:18.774Z,20.86
2023-05-19T18:30:46.787Z,20.85
2023-05-19T18:33:14.909Z,20.83
2023-05-19T18:35:43.026Z,20.79
2023-05-19T18:38:11.148Z,20.75
2023-05-19T18:40:43.786Z,20.71
2023-05-19T18:43:11.908Z,20.70
2023-05-19T18:45:40.083Z,20.67
2023-05-19T18:48:08.406Z,20.66
2023-05-19T18:50:36.673Z,20.61
2023-05-19T18:53:04.788Z,20.59
2023-05-19T18:55:32.906Z,20.54
2023-05-19T18:58:01.525Z,20.53
2023-05-19T19:00:29.646Z,20.51
2023-05-19T19:02:57.821Z,20.48
2023-05-19T19:05:26.305Z,20.46
2023-05-19T19:07:54.312Z,20.44
2023-05-19T19:10:22.539Z,20.40
2023-05-19T19:12:50.852Z,20.38
2023-05-19T19:15:19.028Z,20.34
2023-05-19T19:17:47.238Z,20.30
2023-05-19T19:20:15.616Z,20.28
2023-05-19T19:22:43.732Z,20.24
2023-05-19T19:25:11.850Z,20.22
2023-05-19T19:27:39.970Z,20.14
2023-05-19T19:30:10.894Z,20.07
2023-05-19T19:32:39.038Z,20.04
2023-05-19T19:35:07.741Z,19.96
2023-05-19T19:37:35.963Z,19.88
2023-05-19T19:40:04.180Z,19.77
2023-05-19T19:42:32.419Z,19.69
2023-05-19T19:45:00.621Z,19.58
2023-05-19T19:47:28.793Z,19.50
2023-05-19T19:49:56.969Z,19.45
2023-05-19T19:52:25.719Z,19.36
2023-05-19T19:54:53.903Z,19.26
2023-05-19T19:57:22.028Z,19.20
2023-05-19T19:59:56.767Z,19.13
2023-05-19T20:02:25.102Z,19.06
2023-05-19T20:04:53.609Z,19.01
2023-05-19T20:07:23.383Z,18.98
2023-05-19T20:09:52.965Z,18.96
2023-05-19T20:12:22.386Z,18.93
2023-05-19T20:14:53.617Z,18.92
2023-05-19T20:17:21.736Z,18.92
2023-05-19T20:19:49.860Z,18.91
2023-05-19T20:22:17.979Z,18.91
2023-05-19T20:24:46.197Z,18.90
2023-05-19T20:27:14.325Z,18.90
2023-05-19T20:29:42.738Z,18.91
2023-05-19T20:32:11.471Z,18.91
2023-05-19T20:34:39.726Z,18.92
2023-05-19T20:37:07.797Z,18.95
2023-05-19T20:39:36.024Z,18.96
2023-05-19T20:42:04.440Z,18.98
2023-05-19T20:44:32.479Z,19.00
2023-05-19T20:47:00.578Z,19.03
2023-05-19T20:49:28.704Z,19.05
2023-05-19T20:51:57.328Z,19.08
2023-05-19T20:54:25.542Z,19.13
2023-05-19T20:56:53.669Z,19.16
2023-05-19T20:59:22.189Z,19.19
2023-05-19T21:01:50.419Z,19.21
2023-05-19T21:04:18.893Z,19.24
2023-05-19T21:06:47.026Z,19.25
2023-05-19T21:09:15.270Z,19.25
2023-05-19T21:11:43.487Z,19.26
2023-05-19T21:14:11.606Z,19.26
2023-05-19T21:16:40.060Z,19.25
2023-05-19T21:19:08.280Z,19.26
2023-05-19T21:21:36.510Z,19.26
2023-05-19T21:24:04.895Z,19.26
2023-05-19T21:26:32.910Z,19.26
2023-05-19T21:29:01.328Z,19.23
2023-05-19T21:31:29.476Z,19.22
2023-05-19T21:33:57.773Z,19.19
2023-05-19T21:36:25.894Z,19.17
2023-05-19T21:38:54.219Z,19.15
2023-05-19T21:41:22.639Z,19.13
2023-05-19T21:43:51.052Z,19.10
2023-05-19T21:46:19.209Z,19.07
2023-05-19T21:48:47.498Z,19.04
2023-05-19T21:51:15.612Z,19.02
2023-05-19T21:53:43.733Z,18.97
2023-05-19T21:56:11.852Z,18.92
2023-05-19T21:58:40.476Z,18.89
2023-05-19T22:01:08.756Z,18.85
2023-05-19T22:03:37.402Z,18.82
2023-05-19T22:06:08.567Z,18.79
2023-05-19T22:08:36.671Z,18.76
2023-05-19T22:11:04.996Z,18.73
2023-05-19T22:13:34.115Z,18.71
2023-05-19T22:16:04.848Z,18.68
2023-05-19T22:18:33.163Z,18.67
2023-05-19T22:21:01.483Z,18.69
2023-05-19T22:23:29.504Z,18.68
2023-05-19T22:25:57.624Z,18.71
2023-05-19T22:28:25.858Z,18.74
2023-05-19T22:30:54.058Z,18.77
2023-05-19T22:33:22.198Z,18.78
2023-05-19T22:35:51.001Z,18.79
2023-05-19T22:38:19.125Z,18.79
2023-05-19T22:40:47.349Z,18.79
2023-05-19T22:43:15.461Z,18.81
2023-05-19T22:45:43.723Z,18.83
2023-05-19T22:48:11.944Z,18.88
2023-05-19T22:50:40.131Z,18.91
2023-05-19T22:53:08.249Z,18.93
2023-05-19T22:55:36.560Z,18.93
2023-05-19T22:58:06.612Z,18.95
2023-05-19T23:00:34.713Z,18.95
2023-05-19T23:03:02.864Z,18.94
2023-05-19T23:05:31.072Z,18.93
2023-05-19T23:07:59.185Z,18.91
2023-05-19T23:10:27.391Z,18.88
2023-05-19T23:12:55.505Z,18.85
2023-05-19T23:15:23.932Z,18.84
2023-05-19T23:17:52.086Z,18.82
2023-05-19T23:20:20.271Z,18.81
2023-05-19T23:22:48.398Z,18.80
2023-05-19T23:25:16.817Z,18.81
2023-05-19T23:27:46.661Z,18.84
2023-05-19T23:30:14.761Z,18.83
2023-05-19T23:32:42.922Z,18.81
2023-05-19T23:35:16.561Z,18.79
2023-05-19T23:37:44.743Z,18.76
2023-05-19T23:40:13.066Z,18.71
2023-05-19T23:42:41.185Z,18.64
2023-05-19T23:45:09.753Z,18.58
2023-05-19T23:47:38.310Z,18.52
2023-05-19T23:50:07.148Z,18.47
2023-05-19T23:52:35.474Z,18.42
2023-05-19T23:55:03.920Z,18.37
2023-05-19T23:57:32.118Z,18.31
